Time;durP1;ratioP1;P1;durP2;ratioP2;P2;SDS_P1;SDS_P2;PMS_P1;PMS_P2;Temp;Humidity;BMP_temperature;BMP_pressure;BME280_temperature;BME280_humidity;BME280_pressure;Samples;Min_cycle;Max_cycle;Signal;HPM_P1;HPM_P2
2023/05/01 00:00:47;;;;;;;34.25;13.85;;;;;;;;;;5035288;28;20068;-78
2023/05/01 00:03:13;;;;;;;31.13;12.65;;;;;;;;;;5034977;28;20025;-76
2023/05/01 00:05:39;;;;;;;41.22;14.48;;;;;;;;;;5035366;28;20105;-75
2023/05/01 00:08:04;;;;;;;41.25;13.93;;;;;;;;;;5035076;28;20065;-76
2023/05/01 00:10:30;;;;;;;29.30;12.40;;;;;;;;;;5035153;28;20057;-78
2023/05/01 00:12:55;;;;;;;25.17;12.75;;;;;;;;;;5035212;28;20431;-80
2023/05/01 00:15:21;;;;;;;27.63;12.80;;;;;;;;;;5035081;28;20117;-80
2023/05/01 00:17:47;;;;;;;33.10;13.65;;;;;;;;;;5034800;28;20116;-80
2023/05/01 00:20:13;;;;;;;31.17;13.77;;;;;;;;;;5034653;28;20038;-80
2023/05/01 00:22:38;;;;;;;26.90;11.25;;;;;;;;;;5034893;28;20034;-80
2023/05/01 00:25:04;;;;;;;26.77;11.68;;;;;;;;;;5034617;28;20022;-80
2023/05/01 00:27:30;;;;;;;39.08;13.57;;;;;;;;;;5034715;28;20337;-80
2023/05/01 00:29:55;;;;;;;36.30;14.75;;;;;;;;;;5034707;28;20037;-80
2023/05/01 00:32:20;;;;;;;40.10;15.23;;;;;;;;;;5034411;28;20021;-80
2023/05/01 00:34:47;;;;;;;35.25;13.75;;;;;;;;;;5034495;28;20018;-80
2023/05/01 00:37:12;;;;;;;31.08;12.20;;;;;;;;;;5034409;28;20033;-80
2023/05/01 00:39:38;;;;;;;25.98;10.88;;;;;;;;;;5034542;28;20352;-80
2023/05/01 00:42:03;;;;;;;23.42;10.23;;;;;;;;;;5034680;28;20021;-80
2023/05/01 00:44:29;;;;;;;18.83;9.18;;;;;;;;;;5034381;28;20513;-75
2023/05/01 00:46:57;;;;;;;18.35;9.82;;;;;;;;;;5033997;28;20021;-78
2023/05/01 00:49:22;;;;;;;24.23;10.50;;;;;;;;;;5034478;28;20433;-80
2023/05/01 00:51:52;;;;;;;25.75;10.98;;;;;;;;;;5034123;28;20021;-78
2023/05/01 00:54:18;;;;;;;29.55;11.73;;;;;;;;;;5033981;28;20044;-72
2023/05/01 00:56:46;;;;;;;19.48;9.63;;;;;;;;;;5034001;28;20033;-78
2023/05/01 00:59:11;;;;;;;18.67;9.73;;;;;;;;;;5032864;28;20037;-78
2023/05/01 01:01:37;;;;;;;19.65;10.48;;;;;;;;;;5033843;28;20017;-74
2023/05/01 01:04:02;;;;;;;14.68;8.35;;;;;;;;;;5034025;28;20557;-75
2023/05/01 01:06:33;;;;;;;22.15;9.27;;;;;;;;;;5033463;28;20034;-80
2023/05/01 01:08:58;;;;;;;21.17;9.52;;;;;;;;;;5033427;28;20025;-77
2023/05/01 01:11:36;;;;;;;18.48;9.80;;;;;;;;;;5033898;28;20029;-77
2023/05/01 01:14:15;;;;;;;20.23;8.93;;;;;;;;;;5033940;28;20099;-78
2023/05/01 01:17:08;;;;;;;22.80;9.68;;;;;;;;;;5033590;28;20045;-71
2023/05/01 01:19:57;;;;;;;20.27;10.35;;;;;;;;;;5033494;28;20080;-76
2023/05/01 01:22:26;;;;;;;20.23;10.75;;;;;;;;;;5033688;28;20104;-77
2023/05/01 01:24:58;;;;;;;20.13;8.82;;;;;;;;;;5033684;28;20119;-78
2023/05/01 01:27:29;;;;;;;15.73;9.25;;;;;;;;;;5033246;28;20041;-78
2023/05/01 01:30:22;;;;;;;21.20;10.65;;;;;;;;;;5033319;28;20033;-75
2023/05/01 01:33:35;;;;;;;17.80;9.07;;;;;;;;;;5033793;28;20021;-74
2023/05/01 01:36:06;;;;;;;13.90;6.07;;;;;;;;;;5028487;28;20044;-76
2023/05/01 01:39:16;;;;;;;14.73;8.18;;;;;;;;;;5033587;28;20502;-78
2023/05/01 01:41:49;;;;;;;15.40;8.07;;;;;;;;;;5029205;28;20481;-78
2023/05/01 01:44:34;;;;;;;15.45;8.27;;;;;;;;;;5033127;28;20494;-78
2023/05/01 01:47:03;;;;;;;18.92;9.52;;;;;;;;;;5033120;28;20071;-78
2023/05/01 01:49:30;;;;;;;19.50;9.75;;;;;;;;;;5033528;28;20072;-78
2023/05/01 01:51:57;;;;;;;15.57;8.68;;;;;;;;;;5033127;28;20025;-78
2023/05/01 01:54:31;;;;;;;15.45;8.73;;;;;;;;;;5033267;28;20527;-79
2023/05/01 01:57:00;;;;;;;14.73;8.15;;;;;;;;;;5032951;28;20052;-78
2023/05/01 01:59:30;;;;;;;16.63;6.68;;;;;;;;;;5032761;28;20112;-78
2023/05/01 02:01:56;;;;;;;15.50;8.43;;;;;;;;;;5033062;28;20403;-76
2023/05/01 02:04:23;;;;;;;15.25;8.00;;;;;;;;;;5033155;28;20463;-78
2023/05/01 02:06:48;;;;;;;16.95;7.90;;;;;;;;;;5032905;28;20017;-78
2023/05/01 02:09:17;;;;;;;15.57;8.23;;;;;;;;;;5032972;28;20072;-78
2023/05/01 02:11:43;;;;;;;17.05;8.40;;;;;;;;;;5033064;28;20021;-79
2023/05/01 02:14:10;;;;;;;18.55;7.68;;;;;;;;;;5032931;28;20486;-79
2023/05/01 02:16:36;;;;;;;11.20;6.40;;;;;;;;;;5033137;28;20049;-78
2023/05/01 02:19:04;;;;;;;12.93;6.97;;;;;;;;;;5032871;28;20364;-79
2023/05/01 02:21:30;;;;;;;10.25;6.38;;;;;;;;;;5032746;28;20033;-78
2023/05/01 02:23:57;;;;;;;12.13;6.78;;;;;;;;;;5032902;28;20068;-79
2023/05/01 02:26:25;;;;;;;15.38;6.40;;;;;;;;;;5032558;28;20144;-79
2023/05/01 02:28:50;;;;;;;11.50;6.10;;;;;;;;;;5032697;28;20026;-79
2023/05/01 02:31:16;;;;;;;11.80;6.95;;;;;;;;;;5032775;28;20032;-79
2023/05/01 02:33:41;;;;;;;12.18;7.60;;;;;;;;;;5032677;28;20025;-79
2023/05/01 02:36:07;;;;;;;16.92;7.13;;;;;;;;;;5032469;28;20022;-79
2023/05/01 02:38:33;;;;;;;13.35;7.25;;;;;;;;;;5032899;28;20432;-79
2023/05/01 02:40:59;;;;;;;16.75;7.93;;;;;;;;;;5032792;28;20026;-79
2023/05/01 02:43:27;;;;;;;15.82;7.65;;;;;;;;;;5032573;28;20029;-79
2023/05/01 02:45:54;;;;;;;22.98;7.80;;;;;;;;;;5032619;28;20382;-79
2023/05/01 02:48:24;;;;;;;18.08;7.70;;;;;;;;;;5032513;28;20566;-79
2023/05/01 02:50:51;;;;;;;15.50;7.85;;;;;;;;;;5032650;28;20033;-78
2023/05/01 02:53:17;;;;;;;14.50;7.90;;;;;;;;;;5032454;28;20033;-77
2023/05/01 02:55:43;;;;;;;13.63;7.35;;;;;;;;;;5032436;28;20476;-78
2023/05/01 02:58:15;;;;;;;13.68;7.38;;;;;;;;;;5032415;28;20029;-79
2023/05/01 03:00:40;;;;;;;15.68;7.72;;;;;;;;;;5032620;28;20470;-78
2023/05/01 03:03:06;;;;;;;11.60;6.15;;;;;;;;;;5032580;28;20053;-76
2023/05/01 03:05:31;;;;;;;11.77;6.15;;;;;;;;;;5032772;28;20021;-78
2023/05/01 03:07:57;;;;;;;11.05;5.93;;;;;;;;;;5032381;28;20067;-78
2023/05/01 03:10:22;;;;;;;12.25;5.85;;;;;;;;;;5032303;28;20034;-79
2023/05/01 03:12:48;;;;;;;11.07;5.43;;;;;;;;;;5032855;28;20097;-79
2023/05/01 03:15:13;;;;;;;12.82;5.40;;;;;;;;;;5032678;28;20394;-73
2023/05/01 03:17:39;;;;;;;10.00;4.97;;;;;;;;;;5032868;28;20083;-77
2023/05/01 03:20:05;;;;;;;11.30;5.85;;;;;;;;;;5032929;28;20072;-77
2023/05/01 03:22:32;;;;;;;10.00;5.78;;;;;;;;;;5033243;28;20025;-74
2023/05/01 03:24:58;;;;;;;9.48;4.68;;;;;;;;;;5033155;28;20030;-78
2023/05/01 03:27:23;;;;;;;11.77;5.53;;;;;;;;;;5032973;28;20159;-78
2023/05/01 03:29:49;;;;;;;11.73;5.70;;;;;;;;;;5032532;28;20029;-78
2023/05/01 03:32:16;;;;;;;10.15;5.25;;;;;;;;;;5035954;28;20086;-78
2023/05/01 03:34:42;;;;;;;11.18;5.28;;;;;;;;;;5036046;28;20107;-76
2023/05/01 03:37:07;;;;;;;11.90;5.25;;;;;;;;;;5035670;28;20490;-76
2023/05/01 03:39:33;;;;;;;13.23;5.68;;;;;;;;;;5035628;28;20026;-78
2023/05/01 03:41:58;;;;;;;11.18;5.25;;;;;;;;;;5036000;28;20132;-78
2023/05/01 03:44:24;;;;;;;9.95;5.18;;;;;;;;;;5036658;28;20029;-78
2023/05/01 03:46:49;;;;;;;10.25;5.15;;;;;;;;;;5035449;28;20068;-77
2023/05/01 03:49:14;;;;;;;9.88;4.80;;;;;;;;;;5036084;28;20386;-77
2023/05/01 03:51:40;;;;;;;9.82;4.72;;;;;;;;;;5036988;28;20024;-74
2023/05/01 03:54:06;;;;;;;12.68;5.55;;;;;;;;;;5035751;28;20036;-73
2023/05/01 03:56:34;;;;;;;10.90;5.45;;;;;;;;;;5036706;28;20049;-77
2023/05/01 03:59:00;;;;;;;8.75;5.25;;;;;;;;;;5035534;28;20022;-78
2023/05/01 04:01:25;;;;;;;11.32;4.93;;;;;;;;;;5036341;28;20032;-76
2023/05/01 04:03:51;;;;;;;13.65;5.90;;;;;;;;;;5035978;28;20021;-76
2023/05/01 04:06:18;;;;;;;12.85;5.50;;;;;;;;;;5036048;28;20029;-76
2023/05/01 04:08:43;;;;;;;10.55;5.25;;;;;;;;;;5036238;28;20026;-75
2023/05/01 04:11:09;;;;;;;9.25;4.47;;;;;;;;;;5036551;28;20033;-78
2023/05/01 04:13:35;;;;;;;9.48;5.47;;;;;;;;;;5035967;28;20032;-77
2023/05/01 04:16:00;;;;;;;12.25;5.20;;;;;;;;;;5037695;28;20033;-77
2023/05/01 04:18:26;;;;;;;9.70;5.72;;;;;;;;;;5035657;28;20212;-68
2023/05/01 04:20:51;;;;;;;10.02;5.40;;;;;;;;;;5035877;28;20379;-78
2023/05/01 04:23:17;;;;;;;8.52;5.35;;;;;;;;;;5036297;28;20083;-77
2023/05/01 04:25:43;;;;;;;11.32;5.57;;;;;;;;;;5035466;28;20128;-69
2023/05/01 04:28:12;;;;;;;9.23;5.10;;;;;;;;;;5036504;28;20057;-77
2023/05/01 04:30:38;;;;;;;13.77;4.65;;;;;;;;;;5038475;28;20091;-79
2023/05/01 04:33:10;;;;;;;8.60;4.65;;;;;;;;;;5036349;28;20104;-78
2023/05/01 04:35:38;;;;;;;10.27;4.93;;;;;;;;;;5038619;28;20049;-76
2023/05/01 04:38:05;;;;;;;10.20;5.18;;;;;;;;;;5043551;28;20053;-73
2023/05/01 04:40:30;;;;;;;10.95;5.45;;;;;;;;;;5047993;28;20022;-74
2023/05/01 04:42:56;;;;;;;8.65;5.00;;;;;;;;;;5044466;28;20027;-76
2023/05/01 04:45:22;;;;;;;10.88;5.10;;;;;;;;;;5044002;28;20040;-77
2023/05/01 04:47:47;;;;;;;9.60;4.90;;;;;;;;;;5040837;28;20083;-77
2023/05/01 04:50:13;;;;;;;9.02;5.10;;;;;;;;;;5043555;28;20372;-76
2023/05/01 04:52:38;;;;;;;9.27;4.65;;;;;;;;;;5047519;28;20025;-74
2023/05/01 04:55:04;;;;;;;10.18;4.90;;;;;;;;;;5042760;28;20485;-76
2023/05/01 04:57:30;;;;;;;8.63;4.75;;;;;;;;;;5041883;28;20097;-76
2023/05/01 04:59:55;;;;;;;9.18;4.43;;;;;;;;;;5042676;28;20029;-73
2023/05/01 05:02:21;;;;;;;8.27;4.32;;;;;;;;;;5041631;28;20079;-77
2023/05/01 05:04:46;;;;;;;7.10;4.40;;;;;;;;;;5043331;28;20017;-76
2023/05/01 05:07:12;;;;;;;9.68;4.32;;;;;;;;;;5042889;28;20026;-76
2023/05/01 05:09:37;;;;;;;9.70;4.47;;;;;;;;;;5045998;28;20485;-75
2023/05/01 05:12:03;;;;;;;8.20;4.40;;;;;;;;;;5047022;28;20017;-76
2023/05/01 05:14:29;;;;;;;9.10;4.55;;;;;;;;;;5044393;28;20029;-77
2023/05/01 05:16:55;;;;;;;11.43;4.25;;;;;;;;;;5042729;28;20026;-77
2023/05/01 05:19:20;;;;;;;10.65;4.75;;;;;;;;;;5047966;28;20037;-76
2023/05/01 05:21:45;;;;;;;9.25;4.70;;;;;;;;;;5045490;28;20051;-75
2023/05/01 05:24:12;;;;;;;9.98;4.50;;;;;;;;;;5042384;28;20052;-76
2023/05/01 05:26:38;;;;;;;7.40;4.15;;;;;;;;;;5039092;28;20077;-75
2023/05/01 05:29:03;;;;;;;8.80;4.40;;;;;;;;;;5043007;28;20040;-76
2023/05/01 05:31:29;;;;;;;7.80;4.22;;;;;;;;;;5044275;28;20051;-75
2023/05/01 05:33:54;;;;;;;8.35;4.07;;;;;;;;;;5041197;28;20025;-75
2023/05/01 05:36:20;;;;;;;8.88;4.25;;;;;;;;;;5044305;28;20036;-76
2023/05/01 05:38:45;;;;;;;8.95;4.35;;;;;;;;;;5043781;28;20033;-75
2023/05/01 05:41:11;;;;;;;8.63;4.25;;;;;;;;;;5045229;28;20120;-73
2023/05/01 05:43:36;;;;;;;9.80;3.90;;;;;;;;;;5044166;28;20113;-76
2023/05/01 05:46:02;;;;;;;11.35;4.05;;;;;;;;;;5043160;28;20040;-76
2023/05/01 05:48:27;;;;;;;5.78;3.63;;;;;;;;;;5041147;28;20060;-75
2023/05/01 05:50:53;;;;;;;5.82;3.45;;;;;;;;;;5040003;28;20037;-75
2023/05/01 05:53:19;;;;;;;3.97;2.55;;;;;;;;;;5037544;28;20032;-77
2023/05/01 05:55:47;;;;;;;4.15;2.47;;;;;;;;;;5039957;28;20126;-76
2023/05/01 05:58:18;;;;;;;5.30;2.75;;;;;;;;;;5036581;28;20094;-76
2023/05/01 06:00:45;;;;;;;7.05;3.13;;;;;;;;;;5038214;28;20021;-76
2023/05/01 06:03:10;;;;;;;6.45;2.92;;;;;;;;;;5036970;28;20085;-73
2023/05/01 06:05:36;;;;;;;8.02;3.20;;;;;;;;;;5037984;28;20064;-74
2023/05/01 06:08:01;;;;;;;7.22;3.00;;;;;;;;;;5042809;28;20067;-75
2023/05/01 06:10:27;;;;;;;5.82;3.05;;;;;;;;;;5037851;28;20032;-72
2023/05/01 06:12:52;;;;;;;7.55;3.22;;;;;;;;;;5039868;28;20059;-75
2023/05/01 06:15:17;;;;;;;5.85;3.45;;;;;;;;;;5039018;28;20104;-75
2023/05/01 06:17:43;;;;;;;6.93;3.22;;;;;;;;;;5037357;28;20087;-77
2023/05/01 06:20:09;;;;;;;6.05;3.00;;;;;;;;;;5038184;28;20024;-69
2023/05/01 06:22:35;;;;;;;8.10;3.03;;;;;;;;;;5038760;28;20049;-76
2023/05/01 06:25:00;;;;;;;5.85;2.78;;;;;;;;;;5035461;28;20673;-73
2023/05/01 06:27:26;;;;;;;7.57;3.25;;;;;;;;;;5036561;28;20049;-74
2023/05/01 06:29:51;;;;;;;3.88;2.00;;;;;;;;;;5035049;28;20030;-78
2023/05/01 06:32:17;;;;;;;7.03;2.90;;;;;;;;;;5035611;28;20021;-77
2023/05/01 06:34:42;;;;;;;4.10;2.42;;;;;;;;;;5037842;28;20074;-76
2023/05/01 06:37:07;;;;;;;6.50;2.80;;;;;;;;;;5037183;28;20029;-73
2023/05/01 06:39:33;;;;;;;5.22;2.15;;;;;;;;;;5035470;28;20398;-78
2023/05/01 06:42:00;;;;;;;6.05;2.83;;;;;;;;;;5034863;28;20030;-75
2023/05/01 06:44:25;;;;;;;5.13;3.40;;;;;;;;;;5035563;28;20091;-78
2023/05/01 06:46:51;;;;;;;6.70;2.70;;;;;;;;;;5035566;28;20025;-78
2023/05/01 06:49:16;;;;;;;9.55;3.20;;;;;;;;;;5037063;28;20022;-73
2023/05/01 06:51:41;;;;;;;7.57;3.00;;;;;;;;;;5037949;28;20079;-73
2023/05/01 06:54:07;;;;;;;5.28;2.72;;;;;;;;;;5035630;28;20376;-74
2023/05/01 06:56:33;;;;;;;3.67;2.45;;;;;;;;;;5033921;28;20037;-77
2023/05/01 06:58:58;;;;;;;4.72;2.65;;;;;;;;;;5036289;28;20033;-73
2023/05/01 07:01:24;;;;;;;6.20;2.88;;;;;;;;;;5035472;28;20018;-71
2023/05/01 07:03:49;;;;;;;4.32;2.47;;;;;;;;;;5032898;28;20026;-76
2023/05/01 07:06:14;;;;;;;5.55;2.88;;;;;;;;;;5037893;28;20112;-76
2023/05/01 07:08:40;;;;;;;6.57;3.28;;;;;;;;;;5038939;28;20025;-77
2023/05/01 07:11:06;;;;;;;4.43;3.03;;;;;;;;;;5038259;28;20387;-78
2023/05/01 07:13:31;;;;;;;5.25;2.50;;;;;;;;;;5036934;28;20021;-78
2023/05/01 07:15:57;;;;;;;6.93;2.60;;;;;;;;;;5036392;28;20099;-78
2023/05/01 07:18:22;;;;;;;6.70;3.05;;;;;;;;;;5036010;28;20540;-77
2023/05/01 07:20:49;;;;;;;6.63;3.10;;;;;;;;;;5035789;28;20025;-78
2023/05/01 07:23:14;;;;;;;5.03;2.58;;;;;;;;;;5036003;28;20116;-79
2023/05/01 07:25:40;;;;;;;6.43;3.13;;;;;;;;;;5035665;28;20566;-79
2023/05/01 07:28:06;;;;;;;4.07;2.55;;;;;;;;;;5035832;28;20376;-76
2023/05/01 07:30:32;;;;;;;6.63;2.50;;;;;;;;;;5035890;28;20056;-78
2023/05/01 07:32:58;;;;;;;7.15;3.05;;;;;;;;;;5035574;28;20057;-78
2023/05/01 07:35:23;;;;;;;7.30;2.83;;;;;;;;;;5035646;28;20048;-78
2023/05/01 07:37:53;;;;;;;5.55;2.97;;;;;;;;;;5035758;28;20379;-77
2023/05/01 07:40:19;;;;;;;5.90;2.83;;;;;;;;;;5035770;28;20104;-77
2023/05/01 07:42:44;;;;;;;5.63;2.90;;;;;;;;;;5035779;28;20200;-76
2023/05/01 07:45:10;;;;;;;5.35;2.92;;;;;;;;;;5035600;28;20037;-77
2023/05/01 07:47:36;;;;;;;14.32;3.00;;;;;;;;;;5035197;28;20033;-76
2023/05/01 07:50:10;;;;;;;7.85;3.38;;;;;;;;;;5035417;28;20072;-78
2023/05/01 07:52:36;;;;;;;3.90;2.78;;;;;;;;;;5035402;28;20041;-78
2023/05/01 07:55:02;;;;;;;6.38;3.22;;;;;;;;;;5035243;28;20025;-78
2023/05/01 07:57:27;;;;;;;5.38;3.42;;;;;;;;;;5035506;28;20174;-75
2023/05/01 07:59:56;;;;;;;7.03;3.55;;;;;;;;;;5035406;28;20053;-77
2023/05/01 08:02:21;;;;;;;6.30;3.38;;;;;;;;;;5035028;28;20052;-79
2023/05/01 08:04:47;;;;;;;7.10;3.00;;;;;;;;;;5035388;28;20053;-76
2023/05/01 08:07:13;;;;;;;7.50;3.10;;;;;;;;;;5034927;28;20032;-77
2023/05/01 08:09:39;;;;;;;8.07;3.40;;;;;;;;;;5034994;28;20064;-79
2023/05/01 08:12:04;;;;;;;6.22;3.60;;;;;;;;;;5034986;28;20022;-76
2023/05/01 08:14:30;;;;;;;6.18;2.90;;;;;;;;;;5034977;28;20104;-79
2023/05/01 08:16:55;;;;;;;7.22;2.97;;;;;;;;;;5034128;28;20065;-76
2023/05/01 08:19:22;;;;;;;7.10;2.97;;;;;;;;;;5034468;28;20033;-78
2023/05/01 08:21:47;;;;;;;6.95;3.05;;;;;;;;;;5034708;28;20103;-68
2023/05/01 08:24:12;;;;;;;7.85;2.55;;;;;;;;;;5034731;28;20025;-72
2023/05/01 08:26:38;;;;;;;5.55;3.00;;;;;;;;;;5034599;28;20083;-77
2023/05/01 08:29:03;;;;;;;7.55;2.97;;;;;;;;;;5034856;28;20378;-77
2023/05/01 08:31:29;;;;;;;8.38;2.92;;;;;;;;;;5034556;28;20025;-77
2023/05/01 08:33:55;;;;;;;4.88;2.20;;;;;;;;;;5034708;28;20033;-75
2023/05/01 08:36:20;;;;;;;7.32;3.03;;;;;;;;;;5034441;28;20391;-78
2023/05/01 08:38:46;;;;;;;6.55;2.83;;;;;;;;;;5034621;28;20025;-77
2023/05/01 08:41:16;;;;;;;8.98;3.13;;;;;;;;;;5034474;28;20029;-73
2023/05/01 08:43:42;;;;;;;4.47;2.50;;;;;;;;;;5033337;28;20028;-73
2023/05/01 08:46:08;;;;;;;5.10;2.30;;;;;;;;;;5034449;28;20022;-73
2023/05/01 08:48:35;;;;;;;5.75;2.47;;;;;;;;;;5034367;28;20068;-72
2023/05/01 08:51:02;;;;;;;6.63;3.00;;;;;;;;;;5034311;28;20471;-76
2023/05/01 08:53:30;;;;;;;5.60;2.72;;;;;;;;;;5034235;28;20043;-68
2023/05/01 08:55:57;;;;;;;6.75;2.70;;;;;;;;;;5034151;28;20467;-74
2023/05/01 08:58:25;;;;;;;5.40;2.88;;;;;;;;;;5034080;28;20041;-76
2023/05/01 09:00:52;;;;;;;4.15;2.63;;;;;;;;;;5034154;28;20030;-68
2023/05/01 09:03:19;;;;;;;4.68;2.42;;;;;;;;;;5034236;28;20034;-77
2023/05/01 09:05:45;;;;;;;5.97;2.80;;;;;;;;;;5034117;28;20056;-74
2023/05/01 09:08:10;;;;;;;5.43;2.63;;;;;;;;;;5034075;28;20125;-77
2023/05/01 09:10:43;;;;;;;7.00;2.65;;;;;;;;;;5033888;28;20490;-77
2023/05/01 09:13:08;;;;;;;8.98;3.22;;;;;;;;;;5033663;28;20028;-73
2023/05/01 09:15:34;;;;;;;6.57;2.47;;;;;;;;;;5033941;28;20475;-78
2023/05/01 09:18:00;;;;;;;9.45;2.63;;;;;;;;;;5032544;28;20080;-77
2023/05/01 09:20:26;;;;;;;5.85;2.30;;;;;;;;;;5033471;28;20033;-74
2023/05/01 09:22:51;;;;;;;6.13;2.70;;;;;;;;;;5033730;28;20025;-76
2023/05/01 09:25:18;;;;;;;9.02;2.90;;;;;;;;;;5033411;28;20046;-77
2023/05/01 09:27:44;;;;;;;4.40;2.03;;;;;;;;;;5031637;28;20034;-75
2023/05/01 09:30:29;;;;;;;4.90;2.50;;;;;;;;;;5033740;28;20035;-74
2023/05/01 09:33:14;;;;;;;4.95;2.67;;;;;;;;;;5033654;28;20033;-71
2023/05/01 09:35:52;;;;;;;6.45;2.72;;;;;;;;;;5033541;28;20088;-74
2023/05/01 09:38:20;;;;;;;4.65;2.65;;;;;;;;;;5033328;28;20029;-65
2023/05/01 09:40:46;;;;;;;4.63;2.35;;;;;;;;;;5033433;28;20425;-73
2023/05/01 09:43:11;;;;;;;6.68;3.08;;;;;;;;;;5033198;28;20021;-74
2023/05/01 09:45:39;;;;;;;5.20;2.28;;;;;;;;;;5033125;28;20029;-66
2023/05/01 09:48:11;;;;;;;6.50;2.80;;;;;;;;;;5033133;28;20029;-70
2023/05/01 09:50:41;;;;;;;4.97;2.35;;;;;;;;;;5033322;28;20036;-75
2023/05/01 09:53:07;;;;;;;7.53;2.67;;;;;;;;;;5032897;28;20026;-77
2023/05/01 09:55:33;;;;;;;7.50;2.72;;;;;;;;;;5033445;28;20259;-77
2023/05/01 09:57:59;;;;;;;5.43;2.20;;;;;;;;;;5032975;28;20477;-77
2023/05/01 10:00:25;;;;;;;7.10;2.60;;;;;;;;;;5033152;28;20032;-75
2023/05/01 10:02:51;;;;;;;6.15;2.60;;;;;;;;;;5033344;28;20391;-77
2023/05/01 10:05:17;;;;;;;6.85;2.30;;;;;;;;;;5033278;28;20116;-77
2023/05/01 10:08:01;;;;;;;5.72;1.92;;;;;;;;;;5033110;28;20108;-72
2023/05/01 10:10:27;;;;;;;6.40;2.40;;;;;;;;;;5032642;28;20060;-75
2023/05/01 10:12:52;;;;;;;5.10;2.30;;;;;;;;;;5032838;28;20025;-75
2023/05/01 10:15:21;;;;;;;7.25;2.85;;;;;;;;;;5032661;28;20021;-69
2023/05/01 10:17:50;;;;;;;7.68;3.00;;;;;;;;;;5032868;28;20542;-63
2023/05/01 10:20:16;;;;;;;3.53;2.00;;;;;;;;;;5032641;28;20026;-76
2023/05/01 10:22:41;;;;;;;5.97;2.53;;;;;;;;;;5033159;28;20029;-72
2023/05/01 10:25:10;;;;;;;4.88;2.47;;;;;;;;;;5032657;28;20018;-71
2023/05/01 10:27:38;;;;;;;8.35;2.47;;;;;;;;;;5032594;28;20037;-69
2023/05/01 10:30:05;;;;;;;5.72;2.67;;;;;;;;;;5032849;28;20026;-68
2023/05/01 10:32:33;;;;;;;6.63;2.45;;;;;;;;;;5032672;28;20049;-68
2023/05/01 10:35:17;;;;;;;9.63;2.50;;;;;;;;;;5032746;28;20475;-69
2023/05/01 10:38:03;;;;;;;6.35;2.50;;;;;;;;;;5013050;28;20108;-64
2023/05/01 10:40:37;;;;;;;6.05;2.63;;;;;;;;;;5015385;28;20116;-77
2023/05/01 10:43:26;;;;;;;3.20;2.10;;;;;;;;;;5017082;28;20022;-76
2023/05/01 10:45:53;;;;;;;3.75;2.30;;;;;;;;;;5016974;28;20022;-72
2023/05/01 10:48:37;;;;;;;4.90;2.30;;;;;;;;;;5017007;28;20029;-74
2023/05/01 10:51:09;;;;;;;7.45;2.40;;;;;;;;;;5016810;28;20033;-70
2023/05/01 10:53:35;;;;;;;3.83;2.15;;;;;;;;;;5016767;28;20164;-76
2023/05/01 10:56:04;;;;;;;4.10;2.20;;;;;;;;;;5016639;28;20086;-77
2023/05/01 10:58:36;;;;;;;6.43;2.45;;;;;;;;;;5016679;28;20406;-75
2023/05/01 11:01:26;;;;;;;4.60;2.50;;;;;;;;;;5016634;28;20479;-76
2023/05/01 11:03:52;;;;;;;5.35;2.20;;;;;;;;;;5016413;28;20034;-70
2023/05/01 11:06:17;;;;;;;8.25;2.30;;;;;;;;;;5016518;28;20033;-66
2023/05/01 11:08:44;;;;;;;6.88;2.38;;;;;;;;;;5016458;28;20120;-67
2023/05/01 11:11:18;;;;;;;6.20;2.40;;;;;;;;;;5016311;28;20041;-65
2023/05/01 11:14:10;;;;;;;4.22;2.10;;;;;;;;;;5016351;28;20480;-78
2023/05/01 11:16:38;;;;;;;3.70;1.90;;;;;;;;;;5016313;28;20479;-76
2023/05/01 11:19:08;;;;;;;6.82;2.20;;;;;;;;;;5016041;28;20026;-73
2023/05/01 11:21:35;;;;;;;6.65;2.58;;;;;;;;;;5033127;28;20021;-75
2023/05/01 11:24:05;;;;;;;3.67;2.20;;;;;;;;;;5035753;28;20084;-74
2023/05/01 11:26:31;;;;;;;3.88;2.30;;;;;;;;;;5035552;28;20041;-74
2023/05/01 11:28:59;;;;;;;6.40;2.25;;;;;;;;;;5035657;28;20036;-74
2023/05/01 11:31:25;;;;;;;10.38;3.55;;;;;;;;;;5035491;28;20052;-67
2023/05/01 11:33:54;;;;;;;5.47;2.30;;;;;;;;;;5035717;28;20446;-76
2023/05/01 11:36:20;;;;;;;7.00;2.75;;;;;;;;;;5035578;28;20033;-73
2023/05/01 11:39:03;;;;;;;5.10;2.00;;;;;;;;;;5035510;28;20025;-77
2023/05/01 11:41:28;;;;;;;3.25;1.77;;;;;;;;;;5035419;28;20106;-71
2023/05/01 11:43:58;;;;;;;5.82;2.20;;;;;;;;;;5035613;28;20450;-76
2023/05/01 11:46:27;;;;;;;4.97;2.60;;;;;;;;;;5035348;28;20475;-77
2023/05/01 11:48:53;;;;;;;7.40;2.50;;;;;;;;;;5035513;28;20388;-69
2023/05/01 11:51:19;;;;;;;5.50;2.40;;;;;;;;;;5034738;28;20083;-77
2023/05/01 11:54:04;;;;;;;6.38;2.55;;;;;;;;;;5035323;28;20025;-75
2023/05/01 11:56:30;;;;;;;5.63;2.53;;;;;;;;;;5035333;28;20029;-73
2023/05/01 11:59:08;;;;;;;4.30;2.20;;;;;;;;;;5035288;28;20037;-71
2023/05/01 12:01:34;;;;;;;4.03;2.15;;;;;;;;;;5035393;28;20049;-79
2023/05/01 12:04:03;;;;;;;7.38;2.53;;;;;;;;;;5035290;28;20033;-67
2023/05/01 12:06:42;;;;;;;6.15;2.10;;;;;;;;;;5035140;28;20487;-75
2023/05/01 12:09:09;;;;;;;7.18;2.30;;;;;;;;;;5034822;28;20471;-74
2023/05/01 12:11:36;;;;;;;4.53;2.03;;;;;;;;;;5035066;28;20040;-77
2023/05/01 12:14:02;;;;;;;9.35;2.20;;;;;;;;;;5035124;28;20032;-72
2023/05/01 12:16:29;;;;;;;6.50;2.15;;;;;;;;;;5034901;28;20026;-70
2023/05/01 12:18:54;;;;;;;2.88;1.50;;;;;;;;;;5035068;28;20454;-76
2023/05/01 12:21:20;;;;;;;6.22;2.40;;;;;;;;;;5034407;28;20038;-78
2023/05/01 12:23:46;;;;;;;6.57;2.40;;;;;;;;;;5034983;28;20521;-72
2023/05/01 12:26:18;;;;;;;5.50;2.20;;;;;;;;;;5034589;28;20041;-77
2023/05/01 12:29:01;;;;;;;4.13;2.15;;;;;;;;;;5034632;28;20043;-76
2023/05/01 12:31:27;;;;;;;5.65;2.50;;;;;;;;;;5034939;28;20041;-76
2023/05/01 12:34:00;;;;;;;6.32;2.20;;;;;;;;;;5034613;28;20068;-76
2023/05/01 12:36:28;;;;;;;3.75;2.00;;;;;;;;;;5034254;28;20030;-78
2023/05/01 12:39:06;;;;;;;8.32;2.22;;;;;;;;;;5034488;28;20071;-75
2023/05/01 12:41:53;;;;;;;5.25;2.10;;;;;;;;;;5034562;28;20032;-77
2023/05/01 12:44:23;;;;;;;4.15;2.05;;;;;;;;;;5034531;28;20025;-78
2023/05/01 12:46:55;;;;;;;4.78;2.60;;;;;;;;;;5034417;28;20060;-78
2023/05/01 12:49:22;;;;;;;3.67;1.83;;;;;;;;;;5034318;28;20470;-76
2023/05/01 12:51:48;;;;;;;3.10;1.73;;;;;;;;;;5033968;28;20033;-77
2023/05/01 12:54:27;;;;;;;9.20;3.35;;;;;;;;;;5034499;28;20452;-78
2023/05/01 12:57:03;;;;;;;6.82;2.22;;;;;;;;;;5034282;28;20037;-77
2023/05/01 12:59:28;;;;;;;6.18;2.67;;;;;;;;;;5034246;28;20083;-77
2023/05/01 13:02:02;;;;;;;3.95;2.00;;;;;;;;;;5033980;28;20034;-79
2023/05/01 13:04:28;;;;;;;6.40;2.42;;;;;;;;;;5033990;28;20032;-78
2023/05/01 13:06:54;;;;;;;9.60;3.10;;;;;;;;;;5033700;28;20025;-75
2023/05/01 13:09:22;;;;;;;8.82;2.95;;;;;;;;;;5033732;28;20036;-78
2023/05/01 13:12:07;;;;;;;6.70;2.40;;;;;;;;;;5033884;28;20026;-75
2023/05/01 13:14:40;;;;;;;4.47;2.00;;;;;;;;;;5034085;28;20030;-78
2023/05/01 13:17:10;;;;;;;4.35;1.92;;;;;;;;;;5033776;28;20095;-78
2023/05/01 13:19:36;;;;;;;3.78;1.73;;;;;;;;;;5033304;28;20023;-79
2023/05/01 13:22:03;;;;;;;5.38;2.30;;;;;;;;;;5033846;28;20139;-78
2023/05/01 13:24:39;;;;;;;8.52;2.50;;;;;;;;;;5033487;28;20032;-78
2023/05/01 13:27:07;;;;;;;3.35;1.95;;;;;;;;;;5033246;28;20052;-76
2023/05/01 13:29:33;;;;;;;6.15;1.77;;;;;;;;;;5033727;28;20057;-78
2023/05/01 13:31:58;;;;;;;4.20;1.90;;;;;;;;;;5033713;28;20053;-76
2023/05/01 13:34:30;;;;;;;6.57;2.53;;;;;;;;;;5033132;28;20017;-74
2023/05/01 13:36:56;;;;;;;4.68;2.17;;;;;;;;;;5033529;28;20021;-74
2023/05/01 13:39:22;;;;;;;5.18;2.55;;;;;;;;;;5033502;28;20108;-77
2023/05/01 13:41:51;;;;;;;4.35;2.17;;;;;;;;;;5033513;28;20038;-78
2023/05/01 13:44:17;;;;;;;4.40;1.48;;;;;;;;;;5033394;28;20021;-70
2023/05/01 13:46:44;;;;;;;5.07;2.30;;;;;;;;;;5033337;28;20112;-77
2023/05/01 13:49:10;;;;;;;4.75;2.00;;;;;;;;;;5033162;28;20061;-79
2023/05/01 13:51:41;;;;;;;6.60;2.45;;;;;;;;;;5033291;28;20123;-78
2023/05/01 13:54:07;;;;;;;6.10;2.30;;;;;;;;;;5033144;28;20035;-78
2023/05/01 13:56:34;;;;;;;6.30;2.85;;;;;;;;;;5033135;28;20140;-78
2023/05/01 13:59:00;;;;;;;6.60;3.30;;;;;;;;;;5032916;28;20037;-75
2023/05/01 14:01:26;;;;;;;8.48;2.40;;;;;;;;;;5033120;28;20100;-73
2023/05/01 14:03:52;;;;;;;6.13;2.22;;;;;;;;;;5032993;28;20034;-76
2023/05/01 14:06:19;;;;;;;5.47;2.30;;;;;;;;;;5033072;28;20034;-75
2023/05/01 14:08:46;;;;;;;5.20;2.30;;;;;;;;;;5032935;28;20057;-71
2023/05/01 14:11:12;;;;;;;6.18;2.63;;;;;;;;;;5032935;28;20025;-72
2023/05/01 14:13:43;;;;;;;6.82;2.25;;;;;;;;;;5032820;28;20032;-72
2023/05/01 14:16:11;;;;;;;6.68;2.15;;;;;;;;;;5032822;28;20036;-68
2023/05/01 14:18:47;;;;;;;3.85;1.95;;;;;;;;;;5032624;28;20021;-72
2023/05/01 14:21:14;;;;;;;5.55;2.55;;;;;;;;;;5032706;28;20036;-77
2023/05/01 14:23:41;;;;;;;8.55;3.83;;;;;;;;;;5032874;28;20025;-72
2023/05/01 14:26:07;;;;;;;7.07;2.53;;;;;;;;;;5032491;28;20176;-75
2023/05/01 14:28:38;;;;;;;7.20;3.42;;;;;;;;;;5032720;28;20033;-71
2023/05/01 14:31:03;;;;;;;7.80;3.50;;;;;;;;;;5032756;28;20029;-72
2023/05/01 14:33:29;;;;;;;7.20;3.30;;;;;;;;;;5032506;28;20407;-69
2023/05/01 14:35:54;;;;;;;5.22;2.30;;;;;;;;;;5032594;28;20033;-70
2023/05/01 14:38:22;;;;;;;5.47;2.35;;;;;;;;;;5032649;28;20021;-69
2023/05/01 14:40:47;;;;;;;7.20;2.00;;;;;;;;;;5032234;28;20374;-77
2023/05/01 14:43:16;;;;;;;6.20;2.42;;;;;;;;;;5032462;28;20070;-73